Sylvan Grove, Kansas
Current Conditions -  °F | °C
As of 10:53 PM on Saturday 20 Dec 2014 (Local Time) from KRSL Reporting Station
Clear Clear  
Wind Chill: 28°   Ceiling: Unl
Heat Index: 36°   Visibility: 10mi
Dew Point: 35°   Wind: 13mph
Humidity: 97%   Direction: 200°SSW
Pressure: 29.99"   Gusts: NA
Location:  39.01°N, 98.39°W
Report Text: KRSL 210453Z AUTO 20011KT 10SM CLR 02/02 A2999 RMK AO2 SLP166 T00220017
Loading
Personal Weather Stations






























Interactive Weather Map New forecast layout! Learn more

10-Day Weather Forecast

Advertisements
Track Severe Weather on mobile